Time;durP1;ratioP1;P1;durP2;ratioP2;P2;SDS_P1;SDS_P2;PMS_P1;PMS_P2;Temp;Humidity;BMP_temperature;BMP_pressure;BME280_temperature;BME280_humidity;BME280_pressure;Samples;Min_cycle;Max_cycle;Signal;HPM_P1;HPM_P2
2023/02/09 00:01:51;;;;;;;152.30;11.23;;;;;;;-148.24;100.00;61531.34;4901137;29;20113;-60
2023/02/09 00:04:17;;;;;;;195.85;11.30;;;;;;;-148.24;100.00;61531.34;4900620;29;20750;-59
2023/02/09 00:06:42;;;;;;;212.27;14.27;;;;;;;-148.24;100.00;61531.34;4901261;29;20048;-59
2023/02/09 00:09:07;;;;;;;241.15;14.15;;;;;;;-148.24;100.00;61531.34;4900435;29;20697;-59
2023/02/09 00:14:18;;;;;;;264.42;14.77;;;;;;;-148.24;100.00;61531.34;4900325;29;20059;-58
2023/02/09 00:16:44;;;;;;;231.38;11.90;;;;;;;-148.24;100.00;61531.34;4899967;29;20045;-60
2023/02/09 00:19:11;;;;;;;217.65;11.15;;;;;;;-148.24;100.00;61531.34;4902650;29;20842;-59
2023/02/09 00:21:36;;;;;;;294.42;14.00;;;;;;;-148.24;100.00;61531.34;4900187;29;20040;-57
2023/02/09 00:24:02;;;;;;;231.68;11.32;;;;;;;-148.24;100.00;61531.34;4902277;29;20032;-57
2023/02/09 00:26:27;;;;;;;220.90;11.88;;;;;;;-148.24;100.00;61531.34;4898579;29;20659;-57
2023/02/09 00:28:53;;;;;;;224.00;12.93;;;;;;;-148.24;100.00;61531.34;4898548;29;20043;-57
2023/02/09 00:31:18;;;;;;;130.98;10.45;;;;;;;-148.24;100.00;61531.34;4900185;29;20036;-57
2023/02/09 00:33:43;;;;;;;242.15;11.60;;;;;;;-148.24;100.00;61531.34;4901015;29;20032;-57
2023/02/09 00:36:12;;;;;;;157.50;8.90;;;;;;;-148.24;100.00;61531.34;4901169;29;20570;-61
2023/02/09 00:38:38;;;;;;;283.40;11.02;;;;;;;-148.24;100.00;61531.34;4898673;29;20570;-59
2023/02/09 00:41:04;;;;;;;192.45;10.82;;;;;;;-148.24;100.00;61531.34;4899840;29;22703;-60
2023/02/09 00:43:31;;;;;;;183.23;10.27;;;;;;;-148.24;100.00;61531.34;4906111;29;20024;-60
2023/02/09 00:45:56;;;;;;;226.15;11.20;;;;;;;-148.24;100.00;61531.34;4902118;29;20677;-61
2023/02/09 00:48:22;;;;;;;185.60;12.02;;;;;;;-148.24;100.00;61531.34;4903935;29;20038;-60
2023/02/09 00:50:50;;;;;;;160.85;7.32;;;;;;;-148.24;100.00;61531.34;4903906;29;20036;-60
2023/02/09 00:53:16;;;;;;;128.73;7.75;;;;;;;-148.24;100.00;61531.34;4907680;29;20791;-60
2023/02/09 00:55:41;;;;;;;123.70;5.97;;;;;;;-148.24;100.00;61531.34;4902367;29;20048;-61
2023/02/09 00:58:07;;;;;;;251.32;14.50;;;;;;;-148.24;100.00;61531.34;4902997;29;20032;-60
2023/02/09 01:00:32;;;;;;;161.93;9.15;;;;;;;-148.24;100.00;61531.34;4901808;29;20056;-60
2023/02/09 01:02:58;;;;;;;188.65;11.70;;;;;;;-148.24;100.00;61531.34;4905646;29;20056;-60
2023/02/09 01:05:23;;;;;;;199.38;13.13;;;;;;;-148.24;100.00;61531.34;4902851;29;20036;-61
2023/02/09 01:07:49;;;;;;;157.48;9.32;;;;;;;-148.24;100.00;61531.34;4905155;29;20035;-58
2023/02/09 01:10:14;;;;;;;196.85;11.95;;;;;;;-148.24;100.00;61531.34;4903508;29;20135;-58
2023/02/09 01:12:40;;;;;;;185.93;11.23;;;;;;;-148.24;100.00;61531.34;4902818;29;20051;-60
2023/02/09 01:15:07;;;;;;;191.23;12.80;;;;;;;-148.24;100.00;61531.34;4902403;29;20131;-60
2023/02/09 01:17:33;;;;;;;225.82;16.17;;;;;;;-148.24;100.00;61531.34;4901485;29;20391;-61
2023/02/09 01:19:58;;;;;;;196.07;10.93;;;;;;;-148.24;100.00;61531.34;4902405;29;20040;-60
2023/02/09 01:22:24;;;;;;;182.50;12.05;;;;;;;-148.24;100.00;61531.34;4900307;29;20032;-58
2023/02/09 01:24:49;;;;;;;138.20;7.70;;;;;;;-148.24;100.00;61531.34;4901026;29;20636;-60
2023/02/09 01:27:15;;;;;;;175.93;11.38;;;;;;;-148.24;100.00;61531.34;4902803;29;20479;-59
2023/02/09 01:29:40;;;;;;;221.05;13.45;;;;;;;-148.24;100.00;61531.34;4902592;29;20255;-59
2023/02/09 01:32:06;;;;;;;180.43;9.68;;;;;;;-148.24;100.00;61531.34;4901679;29;20083;-58
2023/02/09 01:34:32;;;;;;;194.85;10.93;;;;;;;-148.24;100.00;61531.34;4899206;29;20040;-60
2023/02/09 01:36:57;;;;;;;203.85;10.65;;;;;;;-148.24;100.00;61531.34;4903487;29;20442;-59
2023/02/09 01:39:22;;;;;;;155.90;12.02;;;;;;;-148.24;100.00;61531.34;4900102;29;20103;-60
2023/02/09 01:41:48;;;;;;;170.52;12.30;;;;;;;-148.24;100.00;61531.34;4904728;29;20064;-58
2023/02/09 01:44:13;;;;;;;165.50;11.13;;;;;;;-148.24;100.00;61531.34;4903243;29;20034;-58
2023/02/09 01:46:39;;;;;;;193.20;14.07;;;;;;;-148.24;100.00;61531.34;4902710;29;20035;-60
2023/02/09 01:49:17;;;;;;;204.90;11.15;;;;;;;-148.24;100.00;61531.34;4900201;29;20895;-59
2023/02/09 01:51:56;;;;;;;183.32;11.25;;;;;;;-148.24;100.00;61531.34;4900753;29;20132;-61
2023/02/09 01:54:30;;;;;;;131.75;9.27;;;;;;;-148.24;100.00;61531.34;4903125;29;20087;-61
2023/02/09 01:57:01;;;;;;;169.30;14.18;;;;;;;-148.24;100.00;61531.34;4903109;29;20130;-60
2023/02/09 01:59:27;;;;;;;176.55;10.02;;;;;;;-148.24;100.00;61531.34;4902313;29;20039;-58
2023/02/09 02:14:49;;;;;;;285.10;14.02;;;;;;;-148.24;100.00;61531.34;6011410;23;20014;-57
2023/02/09 02:32:49;;;;;;;823.05;33.45;;;;;;;-148.24;100.00;61531.34;5893980;23;20018;-58
2023/02/09 02:53:55;;;;;;;941.80;39.55;;;;;;;-148.24;100.00;61531.34;5958395;23;20027;-58
2023/02/09 03:01:38;;;;;;;418.65;17.50;;;;;;;-148.24;100.00;61531.34;5133346;23;20051;-59
2023/02/09 03:04:06;;;;;;;183.25;10.02;;;;;;;-148.24;100.00;61531.34;4948891;28;20030;-58
2023/02/09 03:06:32;;;;;;;197.70;9.52;;;;;;;-148.24;100.00;61531.34;4951625;28;20074;-58
2023/02/09 03:08:58;;;;;;;140.32;8.07;;;;;;;-148.24;100.00;61531.34;4951920;28;20194;-59
2023/02/09 03:11:38;;;;;;;188.57;9.55;;;;;;;-148.24;100.00;61531.34;4956699;28;20039;-61
2023/02/09 03:14:25;;;;;;;173.93;9.05;;;;;;;-148.24;100.00;61531.34;4955470;28;20043;-60
2023/02/09 03:17:26;;;;;;;217.20;7.95;;;;;;;-148.24;100.00;61531.34;4955438;28;20050;-60
2023/02/09 03:19:56;;;;;;;220.20;10.45;;;;;;;-148.24;100.00;61531.34;4885108;29;20036;-60
2023/02/09 03:22:38;;;;;;;175.88;9.40;;;;;;;-148.24;100.00;61531.34;4944646;28;20125;-60
2023/02/09 03:25:36;;;;;;;213.52;10.25;;;;;;;-148.24;100.00;61531.34;4959062;28;20018;-54
2023/02/09 03:28:18;;;;;;;167.70;7.53;;;;;;;-148.24;100.00;61531.34;4961772;28;20669;-61
2023/02/09 03:30:48;;;;;;;152.43;7.65;;;;;;;-148.24;100.00;61531.34;4960472;28;20826;-59
2023/02/09 03:33:23;;;;;;;235.35;8.05;;;;;;;-148.24;100.00;61531.34;4961332;28;20511;-58
2023/02/09 03:35:53;;;;;;;162.52;8.73;;;;;;;-148.24;100.00;61531.34;4961857;28;20730;-59
2023/02/09 03:38:18;;;;;;;229.98;12.25;;;;;;;-148.24;100.00;61531.34;4961967;28;20041;-60
2023/02/09 03:40:43;;;;;;;159.13;9.88;;;;;;;-148.24;100.00;61531.34;4961095;28;20039;-61
2023/02/09 03:43:10;;;;;;;186.25;9.18;;;;;;;-148.24;100.00;61531.34;4962549;28;20026;-61
2023/02/09 03:45:36;;;;;;;195.30;10.23;;;;;;;-148.24;100.00;61531.34;4961787;28;20035;-60
2023/02/09 03:48:03;;;;;;;136.15;8.45;;;;;;;-148.24;100.00;61531.34;4962324;28;20027;-59
2023/02/09 03:50:29;;;;;;;189.68;10.80;;;;;;;-148.24;100.00;61531.34;4943981;28;20555;-58
2023/02/09 03:52:55;;;;;;;169.77;9.65;;;;;;;-148.24;100.00;61531.34;4962061;28;20797;-60
2023/02/09 03:55:20;;;;;;;152.57;8.02;;;;;;;-148.24;100.00;61531.34;4961481;28;20062;-58
2023/02/09 03:57:45;;;;;;;203.40;10.88;;;;;;;-148.24;100.00;61531.34;4962018;28;20113;-59
2023/02/09 04:00:11;;;;;;;182.77;11.98;;;;;;;-148.24;100.00;61531.34;4961226;28;20658;-59
2023/02/09 04:02:37;;;;;;;168.27;11.60;;;;;;;-148.24;100.00;61531.34;4961629;28;20680;-59
2023/02/09 04:05:02;;;;;;;147.38;9.27;;;;;;;-148.24;100.00;61531.34;4961795;28;20594;-60
2023/02/09 04:07:27;;;;;;;157.07;13.05;;;;;;;-148.24;100.00;61531.34;4961871;28;20093;-59
2023/02/09 04:09:53;;;;;;;206.95;12.10;;;;;;;-148.24;100.00;61531.34;4961168;28;20049;-59
2023/02/09 04:12:18;;;;;;;176.52;10.55;;;;;;;-148.24;100.00;61531.34;4961227;28;20608;-60
2023/02/09 04:14:43;;;;;;;150.60;12.45;;;;;;;-148.24;100.00;61531.34;4961812;28;20097;-59
2023/02/09 04:17:09;;;;;;;234.93;12.43;;;;;;;-148.24;100.00;61531.34;4960843;28;20134;-59
2023/02/09 04:19:34;;;;;;;251.32;12.00;;;;;;;-148.24;100.00;61531.34;4961500;28;20130;-59
2023/02/09 04:22:00;;;;;;;182.20;10.38;;;;;;;-148.24;100.00;61531.34;4960682;28;20042;-61
2023/02/09 04:24:26;;;;;;;148.02;11.38;;;;;;;-148.24;100.00;61531.34;4962052;28;20027;-58
2023/02/09 04:26:51;;;;;;;185.98;10.45;;;;;;;-148.24;100.00;61531.34;4961216;28;20118;-60
2023/02/09 04:29:16;;;;;;;237.63;12.68;;;;;;;-148.24;100.00;61531.34;4961261;28;20037;-60
2023/02/09 04:31:42;;;;;;;177.35;7.53;;;;;;;-148.24;100.00;61531.34;4959958;28;20154;-59
2023/02/09 04:34:07;;;;;;;164.10;9.27;;;;;;;-148.24;100.00;61531.34;4961939;28;20690;-57
2023/02/09 04:36:32;;;;;;;165.55;8.25;;;;;;;-148.24;100.00;61531.34;4960497;28;20039;-60
2023/02/09 04:38:58;;;;;;;153.38;8.55;;;;;;;-148.24;100.00;61531.34;4959981;28;20073;-59
2023/02/09 04:41:23;;;;;;;194.13;9.35;;;;;;;-148.24;100.00;61531.34;4959423;28;20381;-58
2023/02/09 04:43:49;;;;;;;178.38;9.80;;;;;;;-148.24;100.00;61531.34;4943981;28;20034;-60
2023/02/09 04:46:16;;;;;;;152.05;10.90;;;;;;;-148.24;100.00;61531.34;4960684;28;21035;-58
2023/02/09 04:48:42;;;;;;;187.50;7.88;;;;;;;-148.24;100.00;61531.34;4960753;28;20038;-59
2023/02/09 04:51:08;;;;;;;198.93;10.50;;;;;;;-148.24;100.00;61531.34;4959567;28;20050;-60
2023/02/09 04:53:34;;;;;;;188.73;8.77;;;;;;;-148.24;100.00;61531.34;4961080;28;20518;-59
2023/02/09 04:55:59;;;;;;;154.95;6.38;;;;;;;-148.24;100.00;61531.34;4942782;28;20062;-59
2023/02/09 05:01:30;;;;;;;224.73;10.73;;;;;;;-148.24;100.00;61531.34;4959317;28;20105;-59
2023/02/09 05:03:56;;;;;;;197.07;10.73;;;;;;;-148.24;100.00;61531.34;4959673;28;20694;-60
2023/02/09 05:06:22;;;;;;;182.10;11.30;;;;;;;-148.24;100.00;61531.34;4960589;28;20642;-59
2023/02/09 05:08:48;;;;;;;192.52;10.02;;;;;;;-148.24;100.00;61531.34;4960690;28;20109;-59
2023/02/09 05:11:14;;;;;;;197.65;9.38;;;;;;;-148.24;100.00;61531.34;4958911;28;20039;-61
2023/02/09 05:13:39;;;;;;;172.95;12.00;;;;;;;-148.24;100.00;61531.34;4960542;28;20037;-59
2023/02/09 05:16:12;;;;;;;231.93;10.85;;;;;;;-148.24;100.00;61531.34;4959702;28;20034;-59
2023/02/09 05:18:37;;;;;;;167.95;9.73;;;;;;;-148.24;100.00;61531.34;4960368;28;20578;-60
2023/02/09 05:21:03;;;;;;;196.93;8.07;;;;;;;-148.24;100.00;61531.34;4958490;28;20050;-59
2023/02/09 05:23:29;;;;;;;178.88;7.75;;;;;;;-148.24;100.00;61531.34;4959938;28;20561;-59
2023/02/09 05:25:55;;;;;;;175.27;9.20;;;;;;;-148.24;100.00;61531.34;4959838;28;20827;-59
2023/02/09 05:28:21;;;;;;;200.50;11.48;;;;;;;-148.24;100.00;61531.34;4960021;28;20667;-60
2023/02/09 05:30:52;;;;;;;178.00;10.70;;;;;;;-148.24;100.00;61531.34;4958649;28;20769;-59
2023/02/09 05:33:18;;;;;;;187.40;11.98;;;;;;;-148.24;100.00;61531.34;4960060;28;20029;-59
2023/02/09 05:35:43;;;;;;;187.18;13.57;;;;;;;-148.24;100.00;61531.34;4959101;28;20039;-61
2023/02/09 05:38:08;;;;;;;150.57;11.30;;;;;;;-148.24;100.00;61531.34;4960280;28;20629;-60
2023/02/09 05:40:34;;;;;;;241.25;14.73;;;;;;;-148.24;100.00;61531.34;4958080;28;20893;-60
2023/02/09 05:43:01;;;;;;;189.15;11.77;;;;;;;-148.24;100.00;61531.34;4959629;28;20645;-59
2023/02/09 05:45:26;;;;;;;185.68;12.27;;;;;;;-148.24;100.00;61531.34;4959199;28;20039;-59
2023/02/09 05:47:52;;;;;;;216.40;14.82;;;;;;;-148.24;100.00;61531.34;4959545;28;20034;-59
2023/02/09 05:50:17;;;;;;;178.57;10.25;;;;;;;-148.24;100.00;61531.34;4958301;28;20041;-59
2023/02/09 05:52:44;;;;;;;224.48;8.65;;;;;;;-148.24;100.00;61531.34;4958939;28;20031;-58
2023/02/09 05:55:09;;;;;;;211.52;11.90;;;;;;;-148.24;100.00;61531.34;4959332;28;20034;-59
2023/02/09 05:57:34;;;;;;;201.32;12.57;;;;;;;-148.24;100.00;61531.34;4959876;28;20027;-58
2023/02/09 06:00:00;;;;;;;208.57;9.38;;;;;;;-148.24;100.00;61531.34;4958369;28;20759;-59
2023/02/09 06:02:25;;;;;;;127.18;10.18;;;;;;;-148.24;100.00;61531.34;4958890;28;20049;-59
2023/02/09 06:04:51;;;;;;;189.95;10.50;;;;;;;-148.24;100.00;61531.34;4959630;28;20081;-60
2023/02/09 06:07:16;;;;;;;177.10;10.75;;;;;;;-148.24;100.00;61531.34;4959007;28;20031;-59
2023/02/09 06:09:41;;;;;;;262.80;13.32;;;;;;;-148.24;100.00;61531.34;4958457;28;20046;-60
2023/02/09 06:12:07;;;;;;;242.68;10.05;;;;;;;-148.24;100.00;61531.34;4958364;28;20039;-59
2023/02/09 06:14:32;;;;;;;173.68;9.32;;;;;;;-148.24;100.00;61531.34;4959455;28;20026;-59
2023/02/09 06:16:57;;;;;;;179.95;10.70;;;;;;;-148.24;100.00;61531.34;4958858;28;20043;-58
2023/02/09 06:19:23;;;;;;;201.85;12.13;;;;;;;-148.24;100.00;61531.34;4959015;28;20066;-59
2023/02/09 06:21:48;;;;;;;164.50;10.82;;;;;;;-148.24;100.00;61531.34;4957818;28;20644;-60
2023/02/09 06:24:15;;;;;;;214.20;12.13;;;;;;;-148.24;100.00;61531.34;4958383;28;20026;-58
2023/02/09 06:26:41;;;;;;;144.57;10.05;;;;;;;-148.24;100.00;61531.34;4959032;28;20601;-60
2023/02/09 06:29:06;;;;;;;167.85;10.07;;;;;;;-148.24;100.00;61531.34;4959464;28;20026;-59
2023/02/09 06:31:33;;;;;;;203.70;12.80;;;;;;;-148.24;100.00;61531.34;4957816;28;20665;-58
2023/02/09 06:33:58;;;;;;;194.40;11.35;;;;;;;-148.24;100.00;61531.34;4959593;28;20508;-59
2023/02/09 06:36:24;;;;;;;154.00;9.70;;;;;;;-148.24;100.00;61531.34;4941566;28;20041;-61
2023/02/09 06:38:49;;;;;;;117.10;8.38;;;;;;;-148.24;100.00;61531.34;4959134;28;20102;-61
2023/02/09 06:41:14;;;;;;;213.05;10.90;;;;;;;-148.24;100.00;61531.34;4957844;28;20042;-60
2023/02/09 06:43:40;;;;;;;242.30;10.90;;;;;;;-148.24;100.00;61531.34;4959036;28;20527;-62
2023/02/09 06:46:10;;;;;;;151.88;8.50;;;;;;;-148.24;100.00;61531.34;4958789;28;20045;-61
2023/02/09 06:48:37;;;;;;;186.40;9.85;;;;;;;-148.24;100.00;61531.34;4959199;28;20419;-59
2023/02/09 06:51:09;;;;;;;186.90;9.95;;;;;;;-148.24;100.00;61531.34;4957306;28;20756;-60
2023/02/09 06:53:36;;;;;;;185.07;9.82;;;;;;;-148.24;100.00;61531.34;4959312;28;20035;-60
2023/02/09 06:56:02;;;;;;;190.73;7.28;;;;;;;-148.24;100.00;61531.34;4956819;28;20899;-58
2023/02/09 06:58:27;;;;;;;149.38;8.73;;;;;;;-148.24;100.00;61531.34;4957890;28;20035;-59
2023/02/09 07:00:53;;;;;;;170.57;9.95;;;;;;;-148.24;100.00;61531.34;4960260;28;20103;-59
2023/02/09 07:03:18;;;;;;;155.40;7.78;;;;;;;-148.24;100.00;61531.34;4962640;28;20373;-59
2023/02/09 07:05:44;;;;;;;178.38;9.25;;;;;;;-148.24;100.00;61531.34;4962259;28;20452;-59
2023/02/09 07:08:09;;;;;;;205.80;9.88;;;;;;;-148.24;100.00;61531.34;4963155;28;20035;-59
2023/02/09 07:10:34;;;;;;;165.38;11.00;;;;;;;-148.24;100.00;61531.34;4961488;28;20955;-60
2023/02/09 07:13:00;;;;;;;177.95;12.55;;;;;;;-148.24;100.00;61531.34;4962398;28;20023;-59
2023/02/09 07:15:25;;;;;;;182.60;8.10;;;;;;;-148.24;100.00;61531.34;4945102;28;20043;-58
2023/02/09 07:17:51;;;;;;;149.57;6.25;;;;;;;-148.24;100.00;61531.34;4963095;28;20034;-60
2023/02/09 07:20:16;;;;;;;202.45;9.77;;;;;;;-148.24;100.00;61531.34;4961045;28;20030;-60
2023/02/09 07:22:42;;;;;;;150.75;7.75;;;;;;;-148.24;100.00;61531.34;4962792;28;20034;-59
2023/02/09 07:25:07;;;;;;;154.95;8.30;;;;;;;-148.24;100.00;61531.34;4961905;28;20035;-60
2023/02/09 07:27:32;;;;;;;179.73;9.15;;;;;;;-148.24;100.00;61531.34;4962835;28;20278;-60
2023/02/09 07:29:58;;;;;;;173.57;7.20;;;;;;;-148.24;100.00;61531.34;4961647;28;20023;-59
2023/02/09 07:32:23;;;;;;;139.65;6.93;;;;;;;-148.24;100.00;61531.34;4962084;28;20134;-59
2023/02/09 07:34:48;;;;;;;172.45;7.07;;;;;;;-148.24;100.00;61531.34;4962427;28;20027;-59
2023/02/09 07:37:14;;;;;;;152.23;7.15;;;;;;;-148.24;100.00;61531.34;4962214;28;20134;-58
2023/02/09 07:39:39;;;;;;;256.85;10.07;;;;;;;-148.24;100.00;61531.34;4961255;28;20429;-59
2023/02/09 07:42:05;;;;;;;169.38;9.23;;;;;;;-148.24;100.00;61531.34;4961851;28;20039;-58
2023/02/09 07:44:30;;;;;;;158.27;7.82;;;;;;;-148.24;100.00;61531.34;4962668;28;20042;-58
2023/02/09 07:46:55;;;;;;;175.07;9.77;;;;;;;-148.24;100.00;61531.34;4961828;28;20043;-58
2023/02/09 07:49:21;;;;;;;135.75;8.90;;;;;;;-148.24;100.00;61531.34;4962320;28;20216;-58
2023/02/09 07:51:46;;;;;;;175.38;9.05;;;;;;;-148.24;100.00;61531.34;4960598;28;20496;-58
2023/02/09 07:54:13;;;;;;;158.68;9.48;;;;;;;-148.24;100.00;61531.34;4962460;28;20475;-58
2023/02/09 07:56:40;;;;;;;144.75;7.50;;;;;;;-148.24;100.00;61531.34;4961994;28;20050;-60
2023/02/09 07:59:05;;;;;;;189.40;10.85;;;;;;;-148.24;100.00;61531.34;4961599;28;20088;-59
2023/02/09 08:01:31;;;;;;;171.85;8.98;;;;;;;-148.24;100.00;61531.34;4960271;28;20051;-58
2023/02/09 08:03:57;;;;;;;157.48;10.27;;;;;;;-148.24;100.00;61531.34;4962250;28;20109;-59
2023/02/09 08:06:34;;;;;;;160.48;12.10;;;;;;;-148.24;100.00;61531.34;4961641;28;20698;-59
2023/02/09 08:09:01;;;;;;;174.35;8.63;;;;;;;-148.24;100.00;61531.34;4961543;28;20030;-59
2023/02/09 08:11:39;;;;;;;153.75;10.80;;;;;;;-148.24;100.00;61531.34;4959166;28;20035;-61
2023/02/09 08:14:12;;;;;;;165.60;9.60;;;;;;;-148.24;100.00;61531.34;4961855;28;20176;-58
2023/02/09 08:16:39;;;;;;;137.80;8.70;;;;;;;-148.24;100.00;61531.34;4960919;28;20105;-59
2023/02/09 08:19:25;;;;;;;157.00;12.18;;;;;;;-148.24;100.00;61531.34;4961872;28;20034;-58
2023/02/09 08:21:50;;;;;;;168.10;11.25;;;;;;;-148.24;100.00;61531.34;4960640;28;20042;-60
2023/02/09 08:24:19;;;;;;;195.85;13.50;;;;;;;-148.24;100.00;61531.34;4961817;28;20045;-59
2023/02/09 08:26:44;;;;;;;176.65;9.00;;;;;;;-148.24;100.00;61531.34;4960422;28;20113;-60
2023/02/09 08:29:10;;;;;;;175.65;11.38;;;;;;;-148.24;100.00;61531.34;4961926;28;20125;-58
2023/02/09 08:31:36;;;;;;;194.30;12.50;;;;;;;-148.24;100.00;61531.34;4959516;28;20031;-58
2023/02/09 08:34:02;;;;;;;147.88;8.30;;;;;;;-148.24;100.00;61531.34;4961300;28;20038;-59
2023/02/09 08:36:29;;;;;;;151.75;7.93;;;;;;;-148.24;100.00;61531.34;4960458;28;20042;-58
2023/02/09 08:38:54;;;;;;;159.52;10.70;;;;;;;-148.24;100.00;61531.34;4961400;28;20051;-61
2023/02/09 08:41:20;;;;;;;153.65;6.78;;;;;;;-148.24;100.00;61531.34;4959147;28;20043;-58
2023/02/09 08:43:50;;;;;;;163.57;11.40;;;;;;;-148.24;100.00;61531.34;4961458;28;20035;-60
2023/02/09 08:46:17;;;;;;;145.48;7.45;;;;;;;-148.24;100.00;61531.34;4961336;28;20011;-58
2023/02/09 08:48:44;;;;;;;190.57;10.43;;;;;;;-148.24;100.00;61531.34;4961125;28;20042;-61
2023/02/09 08:51:12;;;;;;;183.65;8.98;;;;;;;-148.24;100.00;61531.34;4960444;28;20122;-59
2023/02/09 08:53:37;;;;;;;147.88;9.23;;;;;;;-148.24;100.00;61531.34;4960311;28;20057;-58
2023/02/09 08:56:03;;;;;;;173.80;9.80;;;;;;;-148.24;100.00;61531.34;4961133;28;20027;-58
2023/02/09 08:58:29;;;;;;;151.63;8.10;;;;;;;-148.24;100.00;61531.34;4960850;28;20049;-59
2023/02/09 09:00:59;;;;;;;209.88;11.70;;;;;;;-148.24;100.00;61531.34;4960580;28;20109;-59
2023/02/09 09:03:27;;;;;;;143.75;8.30;;;;;;;-148.24;100.00;61531.34;4960064;28;20042;-59
2023/02/09 09:06:04;;;;;;;132.93;9.38;;;;;;;-148.24;100.00;61531.34;4960096;28;20038;-60
2023/02/09 09:08:31;;;;;;;190.05;10.35;;;;;;;-148.24;100.00;61531.34;4961064;28;20027;-58
2023/02/09 09:10:57;;;;;;;151.98;7.95;;;;;;;-148.24;100.00;61531.34;4959633;28;20319;-59
2023/02/09 09:13:26;;;;;;;157.30;9.55;;;;;;;-148.24;100.00;61531.34;4960863;28;20037;-60
2023/02/09 09:15:54;;;;;;;179.15;8.52;;;;;;;-148.24;100.00;61531.34;4955176;28;20144;-58
2023/02/09 09:18:20;;;;;;;151.82;8.68;;;;;;;-148.24;100.00;61531.34;4958834;28;20463;-57
2023/02/09 09:20:45;;;;;;;212.00;7.88;;;;;;;-148.24;100.00;61531.34;4957911;28;20039;-59
2023/02/09 09:23:11;;;;;;;199.13;10.57;;;;;;;-148.24;100.00;61531.34;4957248;28;20022;-59
2023/02/09 09:25:40;;;;;;;156.73;8.88;;;;;;;-148.24;100.00;61531.34;4959783;28;20585;-59
2023/02/09 09:28:06;;;;;;;170.18;10.75;;;;;;;-148.24;100.00;61531.34;4960287;28;20033;-59
2023/02/09 09:30:32;;;;;;;192.85;9.55;;;;;;;-148.24;100.00;61531.34;4958717;28;20030;-60
2023/02/09 09:32:58;;;;;;;171.80;7.70;;;;;;;-148.24;100.00;61531.34;4959858;28;20447;-61
2023/02/09 09:35:25;;;;;;;161.43;9.50;;;;;;;-148.24;100.00;61531.34;4959353;28;20460;-59
2023/02/09 09:37:51;;;;;;;184.13;8.32;;;;;;;-148.24;100.00;61531.34;4959795;28;20641;-58
2023/02/09 09:40:23;;;;;;;171.88;6.90;;;;;;;-148.24;100.00;61531.34;4958568;28;20034;-59
2023/02/09 09:42:53;;;;;;;155.48;8.48;;;;;;;-148.24;100.00;61531.34;4959678;28;20026;-58
2023/02/09 09:45:22;;;;;;;161.23;9.52;;;;;;;-148.24;100.00;61531.34;4959409;28;20026;-59
2023/02/09 09:47:48;;;;;;;167.43;8.93;;;;;;;-148.24;100.00;61531.34;4959942;28;20437;-58
2023/02/09 09:50:20;;;;;;;186.80;8.77;;;;;;;-148.24;100.00;61531.34;4959551;28;20037;-58
2023/02/09 09:52:56;;;;;;;171.98;7.05;;;;;;;-148.24;100.00;61531.34;4941809;28;20090;-60
2023/02/09 09:55:27;;;;;;;172.25;7.70;;;;;;;-148.24;100.00;61531.34;4959181;28;20031;-60
2023/02/09 09:57:55;;;;;;;187.23;8.20;;;;;;;-148.24;100.00;61531.34;4959304;28;20050;-60
2023/02/09 10:00:35;;;;;;;162.07;8.38;;;;;;;-148.24;100.00;61531.34;4958307;28;20807;-58
2023/02/09 10:03:01;;;;;;;176.65;7.20;;;;;;;-148.24;100.00;61531.34;4958644;28;20908;-59
2023/02/09 10:05:34;;;;;;;173.40;7.97;;;;;;;-148.24;100.00;61531.34;4959091;28;20039;-58
2023/02/09 10:08:08;;;;;;;209.55;10.07;;;;;;;-148.24;100.00;61531.34;4959756;28;20027;-60
2023/02/09 10:10:37;;;;;;;181.80;9.13;;;;;;;-148.24;100.00;61531.34;4958041;28;20405;-58
2023/02/09 10:13:08;;;;;;;178.40;7.32;;;;;;;-148.24;100.00;61531.34;4959139;28;20030;-59
2023/02/09 10:15:36;;;;;;;173.85;7.75;;;;;;;-148.24;100.00;61531.34;4958980;28;20034;-60
2023/02/09 10:18:11;;;;;;;144.95;6.97;;;;;;;-148.24;100.00;61531.34;4959530;28;20073;-59
2023/02/09 10:20:46;;;;;;;158.82;6.68;;;;;;;-148.24;100.00;61531.34;4957983;28;20042;-59
2023/02/09 10:23:37;;;;;;;178.02;10.05;;;;;;;-148.24;100.00;61531.34;4958304;28;20373;-58
2023/02/09 10:26:14;;;;;;;159.60;7.80;;;;;;;-148.24;100.00;61531.34;4945871;28;20038;-60
2023/02/09 10:28:46;;;;;;;134.15;6.97;;;;;;;-148.24;100.00;61531.34;4959513;28;20485;-59
2023/02/09 10:31:26;;;;;;;215.98;10.50;;;;;;;-148.24;100.00;61531.34;4957289;28;20039;-59
2023/02/09 10:34:05;;;;;;;145.50;7.93;;;;;;;-148.24;100.00;61531.34;4959559;28;20031;-59
2023/02/09 10:36:34;;;;;;;180.10;7.18;;;;;;;-148.24;100.00;61531.34;4959330;28;20051;-60
2023/02/09 10:39:15;;;;;;;168.05;11.60;;;;;;;-148.24;100.00;61531.34;4959689;28;20027;-58
2023/02/09 10:41:42;;;;;;;174.95;8.15;;;;;;;-148.24;100.00;61531.34;4957447;28;20102;-58
2023/02/09 10:44:19;;;;;;;171.27;9.57;;;;;;;-148.24;100.00;61531.34;4959522;28;20088;-59
2023/02/09 10:46:46;;;;;;;163.25;11.65;;;;;;;-148.24;100.00;61531.34;4958689;28;20455;-60
2023/02/09 10:49:27;;;;;;;170.65;10.73;;;;;;;-148.24;100.00;61531.34;4959045;28;20058;-59
2023/02/09 10:52:04;;;;;;;166.55;10.45;;;;;;;-148.24;100.00;61531.34;4957862;28;20527;-59
2023/02/09 10:54:30;;;;;;;175.00;10.75;;;;;;;-148.24;100.00;61531.34;4958820;28;20035;-59
2023/02/09 10:56:56;;;;;;;195.00;11.30;;;;;;;-148.24;100.00;61531.34;4958230;28;20405;-58
2023/02/09 10:59:24;;;;;;;171.30;9.77;;;;;;;-148.24;100.00;61531.34;4959156;28;20037;-60
2023/02/09 11:01:58;;;;;;;207.45;13.70;;;;;;;-148.24;100.00;61531.34;4956771;28;20054;-58
2023/02/09 11:04:28;;;;;;;175.10;8.25;;;;;;;-148.24;100.00;61531.34;4958725;28;20140;-57
2023/02/09 11:07:00;;;;;;;200.43;9.13;;;;;;;-148.24;100.00;61531.34;4957861;28;20046;-59
2023/02/09 11:09:43;;;;;;;152.93;7.45;;;;;;;-148.24;100.00;61531.34;4958800;28;20101;-60
2023/02/09 11:12:10;;;;;;;190.20;8.57;;;;;;;-148.24;100.00;61531.34;4957714;28;20039;-59
2023/02/09 11:14:35;;;;;;;161.60;9.43;;;;;;;-148.24;100.00;61531.34;4957058;28;20026;-59
2023/02/09 11:17:09;;;;;;;189.27;10.40;;;;;;;-148.24;100.00;61531.34;4958297;28;20042;-60
2023/02/09 11:20:12;;;;;;;208.40;10.60;;;;;;;-148.24;100.00;61531.34;4958129;28;20031;-60
2023/02/09 11:22:46;;;;;;;159.75;11.18;;;;;;;-148.24;100.00;61531.34;4958176;28;20046;-59
2023/02/09 11:25:23;;;;;;;163.95;10.80;;;;;;;-148.24;100.00;61531.34;4957829;28;20129;-58
2023/02/09 11:28:26;;;;;;;119.55;8.60;;;;;;;-148.24;100.00;61531.34;4958341;28;20094;-60
2023/02/09 11:30:51;;;;;;;;;;;;;;;-148.24;100.00;61531.34;4958428;28;20118;-59
2023/02/09 11:33:49;;;;;;;169.20;9.60;;;;;;;-148.24;100.00;61531.34;4958413;28;19955;-59
2023/02/09 11:36:32;;;;;;;183.07;8.60;;;;;;;-148.24;100.00;61531.34;4957898;28;21077;-58
2023/02/09 11:39:01;;;;;;;118.88;6.53;;;;;;;-148.24;100.00;61531.34;4958813;28;20292;-59
2023/02/09 11:44:28;;;;;;;165.30;11.25;;;;;;;-148.24;100.00;61531.34;4959197;28;20112;-59
2023/02/09 11:47:03;;;;;;;157.27;8.02;;;;;;;-148.24;100.00;61531.34;4974809;28;20126;-58
2023/02/09 11:49:40;;;;;;;207.77;12.48;;;;;;;-148.24;100.00;61531.34;4961098;28;20400;-59
2023/02/09 11:52:07;;;;;;;145.73;10.05;;;;;;;-148.24;100.00;61531.34;4960848;28;20031;-59
2023/02/09 11:54:35;;;;;;;182.02;11.13;;;;;;;-148.24;100.00;61531.34;4961814;28;20019;-59
2023/02/09 11:57:14;;;;;;;219.63;12.18;;;;;;;-148.24;100.00;61531.34;4961146;28;20074;-60